sensor_id;sensor_type;location;lat;lon;timestamp;pressure;altitude;pressure_sealevel;temperature;humidity
21290;BME280;10804;48.988;2.408;2023-11-19T00:02:21;100792.53;;;14.35;66.49
21290;BME280;10804;48.988;2.408;2023-11-19T00:04:49;100785.53;;;14.35;66.43
21290;BME280;10804;48.988;2.408;2023-11-19T00:07:16;100787.22;;;14.36;66.33
21290;BME280;10804;48.988;2.408;2023-11-19T00:09:43;100788.94;;;14.37;66.54
21290;BME280;10804;48.988;2.408;2023-11-19T00:12:11;100776.66;;;14.38;66.76
21290;BME280;10804;48.988;2.408;2023-11-19T00:14:40;100771.41;;;14.38;66.78
21290;BME280;10804;48.988;2.408;2023-11-19T00:17:08;100778.38;;;14.39;66.46
21290;BME280;10804;48.988;2.408;2023-11-19T00:19:35;100784.47;;;14.39;66.75
21290;BME280;10804;48.988;2.408;2023-11-19T00:22:03;100773.97;;;14.39;66.45
21290;BME280;10804;48.988;2.408;2023-11-19T00:24:30;100773.06;;;14.40;66.56
21290;BME280;10804;48.988;2.408;2023-11-19T00:26:57;100772.13;;;14.41;66.64
21290;BME280;10804;48.988;2.408;2023-11-19T00:29:25;100764.22;;;14.43;66.57
21290;BME280;10804;48.988;2.408;2023-11-19T00:31:53;100765.97;;;14.42;66.51
21290;BME280;10804;48.988;2.408;2023-11-19T00:34:21;100758.97;;;14.43;66.56
21290;BME280;10804;48.988;2.408;2023-11-19T00:36:49;100755.41;;;14.44;66.51
21290;BME280;10804;48.988;2.408;2023-11-19T00:39:16;100745.78;;;14.44;66.64
21290;BME280;10804;48.988;2.408;2023-11-19T00:41:46;100745.78;;;14.44;66.44
21290;BME280;10804;48.988;2.408;2023-11-19T00:44:13;100759.75;;;14.45;66.56
21290;BME280;10804;48.988;2.408;2023-11-19T00:46:41;100768.50;;;14.45;66.56
21290;BME280;10804;48.988;2.408;2023-11-19T00:49:09;100763.19;;;14.47;66.63
21290;BME280;10804;48.988;2.408;2023-11-19T00:51:38;100759.69;;;14.46;66.71
21290;BME280;10804;48.988;2.408;2023-11-19T00:54:06;100757.00;;;14.48;66.58
21290;BME280;10804;48.988;2.408;2023-11-19T00:56:33;100764.88;;;14.48;66.71
21290;BME280;10804;48.988;2.408;2023-11-19T00:59:01;100769.22;;;14.49;66.56
21290;BME280;10804;48.988;2.408;2023-11-19T01:01:30;100753.47;;;14.49;66.76
21290;BME280;10804;48.988;2.408;2023-11-19T01:03:57;100743.81;;;14.49;66.54
21290;BME280;10804;48.988;2.408;2023-11-19T01:06:29;100740.31;;;14.50;66.46
21290;BME280;10804;48.988;2.408;2023-11-19T01:08:57;100755.13;;;14.51;66.59
21290;BME280;10804;48.988;2.408;2023-11-19T01:11:25;100752.50;;;14.51;66.63
21290;BME280;10804;48.988;2.408;2023-11-19T01:13:52;100755.03;;;14.53;66.66
21290;BME280;10804;48.988;2.408;2023-11-19T01:16:20;100749.78;;;14.53;66.47
21290;BME280;10804;48.988;2.408;2023-11-19T01:18:48;100760.22;;;14.54;66.60
21290;BME280;10804;48.988;2.408;2023-11-19T01:21:15;100747.13;;;14.54;66.58
21290;BME280;10804;48.988;2.408;2023-11-19T01:23:44;100753.22;;;14.55;66.66
21290;BME280;10804;48.988;2.408;2023-11-19T01:26:12;100763.72;;;14.55;66.48
21290;BME280;10804;48.988;2.408;2023-11-19T01:28:40;100764.56;;;14.55;66.63
21290;BME280;10804;48.988;2.408;2023-11-19T01:31:11;100772.44;;;14.55;66.65
21290;BME280;10804;48.988;2.408;2023-11-19T01:33:38;100766.25;;;14.56;66.55
21290;BME280;10804;48.988;2.408;2023-11-19T01:36:08;100772.38;;;14.57;66.67
21290;BME280;10804;48.988;2.408;2023-11-19T01:38:36;100773.22;;;14.57;66.62
21290;BME280;10804;48.988;2.408;2023-11-19T01:41:05;100771.41;;;14.59;66.50
21290;BME280;10804;48.988;2.408;2023-11-19T01:43:34;100781.03;;;14.59;66.65
21290;BME280;10804;48.988;2.408;2023-11-19T01:46:02;100773.22;;;14.57;66.49
21290;BME280;10804;48.988;2.408;2023-11-19T01:48:31;100781.91;;;14.59;66.62
21290;BME280;10804;48.988;2.408;2023-11-19T01:51:00;100783.59;;;14.60;66.62
21290;BME280;10804;48.988;2.408;2023-11-19T01:53:29;100784.44;;;14.61;66.69
21290;BME280;10804;48.988;2.408;2023-11-19T01:55:56;100780.97;;;14.60;66.46
21290;BME280;10804;48.988;2.408;2023-11-19T01:58:25;100767.88;;;14.60;66.42
21290;BME280;10804;48.988;2.408;2023-11-19T02:00:53;100761.69;;;14.61;66.79
21290;BME280;10804;48.988;2.408;2023-11-19T02:03:21;100764.31;;;14.61;66.68
21290;BME280;10804;48.988;2.408;2023-11-19T02:05:49;100760.78;;;14.62;66.71
21290;BME280;10804;48.988;2.408;2023-11-19T02:08:17;100749.44;;;14.62;66.62
21290;BME280;10804;48.988;2.408;2023-11-19T02:10:45;100751.97;;;14.63;66.68
21290;BME280;10804;48.988;2.408;2023-11-19T02:13:12;100749.44;;;14.62;66.59
21290;BME280;10804;48.988;2.408;2023-11-19T02:15:43;100742.34;;;14.64;66.71
21290;BME280;10804;48.988;2.408;2023-11-19T02:18:18;100743.19;;;14.64;66.69
21290;BME280;10804;48.988;2.408;2023-11-19T02:20:46;100742.34;;;14.64;66.61
21290;BME280;10804;48.988;2.408;2023-11-19T02:23:13;100744.97;;;14.64;66.82
21290;BME280;10804;48.988;2.408;2023-11-19T02:25:41;100736.16;;;14.65;66.75
21290;BME280;10804;48.988;2.408;2023-11-19T02:28:11;100737.00;;;14.65;66.76
21290;BME280;10804;48.988;2.408;2023-11-19T02:30:39;100736.13;;;14.66;66.66
21290;BME280;10804;48.988;2.408;2023-11-19T02:33:07;100744.88;;;14.65;66.62
21290;BME280;10804;48.988;2.408;2023-11-19T02:35:34;100742.25;;;14.65;66.57
21290;BME280;10804;48.988;2.408;2023-11-19T02:38:02;100740.50;;;14.66;66.75
21290;BME280;10804;48.988;2.408;2023-11-19T02:40:30;100742.25;;;14.65;66.78
21290;BME280;10804;48.988;2.408;2023-11-19T02:42:57;100741.38;;;14.66;66.74
21290;BME280;10804;48.988;2.408;2023-11-19T02:45:26;100737.88;;;14.66;66.76
21290;BME280;10804;48.988;2.408;2023-11-19T02:47:54;100733.50;;;14.66;66.64
21290;BME280;10804;48.988;2.408;2023-11-19T02:50:22;100730.00;;;14.66;66.63
21290;BME280;10804;48.988;2.408;2023-11-19T02:52:52;100724.75;;;14.66;66.62
21290;BME280;10804;48.988;2.408;2023-11-19T02:55:20;100726.50;;;14.65;66.92
21290;BME280;10804;48.988;2.408;2023-11-19T02:57:50;100723.09;;;14.63;66.83
21290;BME280;10804;48.988;2.408;2023-11-19T03:00:20;100729.13;;;14.65;66.75
21290;BME280;10804;48.988;2.408;2023-11-19T03:02:59;100736.16;;;14.65;66.94
21290;BME280;10804;48.988;2.408;2023-11-19T03:05:36;100735.31;;;14.64;66.86
21290;BME280;10804;48.988;2.408;2023-11-19T03:08:04;100724.81;;;14.64;66.68
21290;BME280;10804;48.988;2.408;2023-11-19T03:10:31;100732.69;;;14.64;66.83
21290;BME280;10804;48.988;2.408;2023-11-19T03:13:01;100737.09;;;14.64;66.91
21290;BME280;10804;48.988;2.408;2023-11-19T03:15:29;100728.34;;;14.63;67.10
21290;BME280;10804;48.988;2.408;2023-11-19T03:17:57;100734.53;;;14.62;66.87
21290;BME280;10804;48.988;2.408;2023-11-19T03:20:25;100728.44;;;14.62;66.91
21290;BME280;10804;48.988;2.408;2023-11-19T03:22:53;100727.56;;;14.61;66.82
21290;BME280;10804;48.988;2.408;2023-11-19T03:25:21;100724.06;;;14.61;66.87
21290;BME280;10804;48.988;2.408;2023-11-19T03:27:48;100724.16;;;14.59;66.87
21290;BME280;10804;48.988;2.408;2023-11-19T03:30:16;100721.44;;;14.61;67.02
21290;BME280;10804;48.988;2.408;2023-11-19T03:32:43;100718.91;;;14.59;66.89
21290;BME280;10804;48.988;2.408;2023-11-19T03:35:10;100727.72;;;14.58;67.07
21290;BME280;10804;48.988;2.408;2023-11-19T03:37:39;100727.72;;;14.58;66.81
21290;BME280;10804;48.988;2.408;2023-11-19T03:40:07;100723.34;;;14.57;66.89
21290;BME280;10804;48.988;2.408;2023-11-19T03:42:36;100720.72;;;14.57;66.82
21290;BME280;10804;48.988;2.408;2023-11-19T03:45:06;100714.66;;;14.57;66.91
21290;BME280;10804;48.988;2.408;2023-11-19T03:47:34;100720.72;;;14.57;66.86
21290;BME280;10804;48.988;2.408;2023-11-19T03:50:02;100723.44;;;14.56;67.12
21290;BME280;10804;48.988;2.408;2023-11-19T03:52:30;100724.28;;;14.56;67.08
21290;BME280;10804;48.988;2.408;2023-11-19T03:54:59;100717.31;;;14.55;66.91
21290;BME280;10804;48.988;2.408;2023-11-19T03:57:27;100720.88;;;14.54;66.95
21290;BME280;10804;48.988;2.408;2023-11-19T03:59:54;100720.00;;;14.54;66.90
21290;BME280;10804;48.988;2.408;2023-11-19T04:02:22;100728.78;;;14.53;67.13
21290;BME280;10804;48.988;2.408;2023-11-19T04:04:49;100726.16;;;14.53;67.03
21290;BME280;10804;48.988;2.408;2023-11-19T04:07:17;100729.66;;;14.53;66.82
21290;BME280;10804;48.988;2.408;2023-11-19T04:09:44;100735.84;;;14.52;66.96
21290;BME280;10804;48.988;2.408;2023-11-19T04:12:14;100719.31;;;14.50;67.02
21290;BME280;10804;48.988;2.408;2023-11-19T04:14:41;100727.97;;;14.52;67.01
21290;BME280;10804;48.988;2.408;2023-11-19T04:17:09;100720.09;;;14.52;66.87
21290;BME280;10804;48.988;2.408;2023-11-19T04:19:36;100723.63;;;14.51;67.02
21290;BME280;10804;48.988;2.408;2023-11-19T04:22:03;100738.47;;;14.52;67.10
21290;BME280;10804;48.988;2.408;2023-11-19T04:24:31;100737.59;;;14.52;67.16
21290;BME280;10804;48.988;2.408;2023-11-19T04:26:58;100734.97;;;14.52;67.22
21290;BME280;10804;48.988;2.408;2023-11-19T04:29:27;100739.38;;;14.51;67.09
21290;BME280;10804;48.988;2.408;2023-11-19T04:31:56;100730.78;;;14.48;67.08
21290;BME280;10804;48.988;2.408;2023-11-19T04:34:23;100733.22;;;14.52;66.97
21290;BME280;10804;48.988;2.408;2023-11-19T04:36:51;100740.22;;;14.52;67.07
21290;BME280;10804;48.988;2.408;2023-11-19T04:39:20;100731.75;;;14.45;67.07
21290;BME280;10804;48.988;2.408;2023-11-19T04:41:49;100735.84;;;14.52;67.22
21290;BME280;10804;48.988;2.408;2023-11-19T04:44:18;100736.75;;;14.51;67.20
21290;BME280;10804;48.988;2.408;2023-11-19T04:46:46;100745.41;;;14.53;67.19
21290;BME280;10804;48.988;2.408;2023-11-19T04:49:14;100749.78;;;14.53;66.94
21290;BME280;10804;48.988;2.408;2023-11-19T04:51:43;100745.41;;;14.53;67.00
21290;BME280;10804;48.988;2.408;2023-11-19T04:54:13;100760.28;;;14.53;67.16
21290;BME280;10804;48.988;2.408;2023-11-19T04:56:40;100757.75;;;14.51;67.19
21290;BME280;10804;48.988;2.408;2023-11-19T04:59:11;100752.41;;;14.53;67.12
21290;BME280;10804;48.988;2.408;2023-11-19T05:01:39;100744.63;;;14.51;67.20
21290;BME280;10804;48.988;2.408;2023-11-19T05:04:08;100743.72;;;14.52;67.23
21290;BME280;10804;48.988;2.408;2023-11-19T05:06:36;100750.72;;;14.52;66.95
21290;BME280;10804;48.988;2.408;2023-11-19T05:09:03;100742.91;;;14.50;67.09
21290;BME280;10804;48.988;2.408;2023-11-19T05:11:33;100751.63;;;14.51;67.31
21290;BME280;10804;48.988;2.408;2023-11-19T05:14:02;100766.53;;;14.50;67.05
21290;BME280;10804;48.988;2.408;2023-11-19T05:16:31;100751.69;;;14.49;67.25
21290;BME280;10804;48.988;2.408;2023-11-19T05:19:01;100756.03;;;14.50;67.22
21290;BME280;10804;48.988;2.408;2023-11-19T05:21:30;100757.84;;;14.48;67.13
21290;BME280;10804;48.988;2.408;2023-11-19T05:23:57;100754.44;;;14.46;67.13
21290;BME280;10804;48.988;2.408;2023-11-19T05:26:24;100756.16;;;14.47;67.28
21290;BME280;10804;48.988;2.408;2023-11-19T05:28:52;100757.94;;;14.47;67.32
21290;BME280;10804;48.988;2.408;2023-11-19T05:31:19;100766.66;;;14.47;67.25
21290;BME280;10804;48.988;2.408;2023-11-19T05:33:46;100758.81;;;14.46;67.38
21290;BME280;10804;48.988;2.408;2023-11-19T05:36:14;100759.69;;;14.46;67.22
21290;BME280;10804;48.988;2.408;2023-11-19T05:38:42;100759.75;;;14.45;67.29
21290;BME280;10804;48.988;2.408;2023-11-19T05:41:10;100779.03;;;14.44;67.10
21290;BME280;10804;48.988;2.408;2023-11-19T05:43:38;100786.06;;;14.43;67.20
21290;BME280;10804;48.988;2.408;2023-11-19T05:46:06;100780.81;;;14.43;67.17
21290;BME280;10804;48.988;2.408;2023-11-19T05:48:33;100788.75;;;14.42;67.34
21290;BME280;10804;48.988;2.408;2023-11-19T05:51:01;100790.50;;;14.41;67.14
21290;BME280;10804;48.988;2.408;2023-11-19T05:53:29;100789.59;;;14.42;67.11
21290;BME280;10804;48.988;2.408;2023-11-19T05:55:57;100784.47;;;14.39;67.26
21290;BME280;10804;48.988;2.408;2023-11-19T05:58:28;100789.72;;;14.39;67.34
21290;BME280;10804;48.988;2.408;2023-11-19T06:00:56;100792.34;;;14.39;67.47
21290;BME280;10804;48.988;2.408;2023-11-19T06:03:24;100797.59;;;14.39;67.41
21290;BME280;10804;48.988;2.408;2023-11-19T06:05:51;100794.13;;;14.39;67.22
21290;BME280;10804;48.988;2.408;2023-11-19T06:08:20;100788.03;;;14.38;67.42
21290;BME280;10804;48.988;2.408;2023-11-19T06:10:47;100791.56;;;14.37;67.16
21290;BME280;10804;48.988;2.408;2023-11-19T06:13:18;100789.84;;;14.36;67.17
21290;BME280;10804;48.988;2.408;2023-11-19T06:15:45;100791.59;;;14.36;67.36
21290;BME280;10804;48.988;2.408;2023-11-19T06:18:13;100793.41;;;14.35;67.43
21290;BME280;10804;48.988;2.408;2023-11-19T06:20:40;100789.91;;;14.35;67.26
21290;BME280;10804;48.988;2.408;2023-11-19T06:23:08;100796.06;;;14.34;67.29
21290;BME280;10804;48.988;2.408;2023-11-19T06:25:35;100789.97;;;14.33;67.25
21290;BME280;10804;48.988;2.408;2023-11-19T06:28:03;100793.50;;;14.32;67.17
21290;BME280;10804;48.988;2.408;2023-11-19T06:30:32;100802.25;;;14.33;67.19
21290;BME280;10804;48.988;2.408;2023-11-19T06:32:59;100797.91;;;14.32;67.21
21290;BME280;10804;48.988;2.408;2023-11-19T06:35:26;100786.56;;;14.31;67.37
21290;BME280;10804;48.988;2.408;2023-11-19T06:37:55;100790.09;;;14.30;67.19
21290;BME280;10804;48.988;2.408;2023-11-19T06:40:23;100800.59;;;14.30;67.25
21290;BME280;10804;48.988;2.408;2023-11-19T06:42:51;100802.28;;;14.31;67.28
21290;BME280;10804;48.988;2.408;2023-11-19T06:45:19;100793.63;;;14.29;67.29
21290;BME280;10804;48.988;2.408;2023-11-19T06:47:48;100800.69;;;14.27;67.39
21290;BME280;10804;48.988;2.408;2023-11-19T06:50:15;100798.97;;;14.26;67.33
21290;BME280;10804;48.988;2.408;2023-11-19T06:52:45;100799.84;;;14.27;67.16
21290;BME280;10804;48.988;2.408;2023-11-19T06:55:12;100801.59;;;14.26;67.36
21290;BME280;10804;48.988;2.408;2023-11-19T06:57:40;100796.38;;;14.26;67.43
21290;BME280;10804;48.988;2.408;2023-11-19T07:00:08;100810.41;;;14.25;67.38
21290;BME280;10804;48.988;2.408;2023-11-19T07:02:37;100808.69;;;14.24;67.32
21290;BME280;10804;48.988;2.408;2023-11-19T07:05:07;100822.69;;;14.25;67.28
21290;BME280;10804;48.988;2.408;2023-11-19T07:07:34;100820.09;;;14.23;67.38
21290;BME280;10804;48.988;2.408;2023-11-19T07:10:02;100818.41;;;14.22;67.17
21290;BME280;10804;48.988;2.408;2023-11-19T07:12:30;100819.31;;;14.21;67.39
21290;BME280;10804;48.988;2.408;2023-11-19T07:14:58;100826.28;;;14.22;67.22
21290;BME280;10804;48.988;2.408;2023-11-19T07:17:26;100822.03;;;14.18;67.17
21290;BME280;10804;48.988;2.408;2023-11-19T07:19:53;100822.84;;;14.20;67.36
21290;BME280;10804;48.988;2.408;2023-11-19T07:22:22;100819.41;;;14.18;67.25
21290;BME280;10804;48.988;2.408;2023-11-19T07:24:49;100833.41;;;14.19;67.23
21290;BME280;10804;48.988;2.408;2023-11-19T07:27:17;100823.75;;;14.19;67.42
21290;BME280;10804;48.988;2.408;2023-11-19T07:29:44;100828.16;;;14.17;67.40
21290;BME280;10804;48.988;2.408;2023-11-19T07:32:12;100831.69;;;14.18;67.46
21290;BME280;10804;48.988;2.408;2023-11-19T07:34:39;100829.09;;;14.16;67.48
21290;BME280;10804;48.988;2.408;2023-11-19T07:37:07;100839.59;;;14.16;67.23
21290;BME280;10804;48.988;2.408;2023-11-19T07:39:35;100836.03;;;14.17;67.22
21290;BME280;10804;48.988;2.408;2023-11-19T07:42:06;100831.75;;;14.15;67.07
21290;BME280;10804;48.988;2.408;2023-11-19T07:44:35;100834.38;;;14.15;67.29
21290;BME280;10804;48.988;2.408;2023-11-19T07:47:03;100845.78;;;14.14;67.45
21290;BME280;10804;48.988;2.408;2023-11-19T07:49:30;100851.91;;;14.14;67.58
21290;BME280;10804;48.988;2.408;2023-11-19T07:51:58;100851.91;;;14.14;67.27
21290;BME280;10804;48.988;2.408;2023-11-19T07:54:25;100847.56;;;14.13;67.23
21290;BME280;10804;48.988;2.408;2023-11-19T07:56:54;100855.44;;;14.13;67.20
21290;BME280;10804;48.988;2.408;2023-11-19T07:59:21;100845.88;;;14.12;67.29
21290;BME280;10804;48.988;2.408;2023-11-19T08:01:48;100843.25;;;14.12;67.23
21290;BME280;10804;48.988;2.408;2023-11-19T08:04:16;100834.50;;;14.12;67.47
21290;BME280;10804;48.988;2.408;2023-11-19T08:06:43;100834.56;;;14.10;67.29
21290;BME280;10804;48.988;2.408;2023-11-19T08:09:11;100839.81;;;14.10;67.50
21290;BME280;10804;48.988;2.408;2023-11-19T08:11:40;100841.50;;;14.11;67.56
21290;BME280;10804;48.988;2.408;2023-11-19T08:14:09;100842.38;;;14.12;67.29
21290;BME280;10804;48.988;2.408;2023-11-19T08:16:36;100846.75;;;14.11;67.49
21290;BME280;10804;48.988;2.408;2023-11-19T08:19:04;100843.31;;;14.11;67.57
21290;BME280;10804;48.988;2.408;2023-11-19T08:21:31;100828.41;;;14.11;67.46
21290;BME280;10804;48.988;2.408;2023-11-19T08:23:58;100838.06;;;14.11;67.35
21290;BME280;10804;48.988;2.408;2023-11-19T08:26:26;100845.91;;;14.11;67.38
21290;BME280;10804;48.988;2.408;2023-11-19T08:28:53;100843.31;;;14.11;67.61
21290;BME280;10804;48.988;2.408;2023-11-19T08:31:22;100842.38;;;14.12;67.71
21290;BME280;10804;48.988;2.408;2023-11-19T08:33:49;100841.50;;;14.11;67.73
21290;BME280;10804;48.988;2.408;2023-11-19T08:36:16;100854.56;;;14.13;67.42
21290;BME280;10804;48.988;2.408;2023-11-19T08:38:44;100851.13;;;14.12;67.64
21290;BME280;10804;48.988;2.408;2023-11-19T08:41:12;100865.06;;;14.13;67.55
21290;BME280;10804;48.988;2.408;2023-11-19T08:43:39;100872.09;;;14.12;67.53
21290;BME280;10804;48.988;2.408;2023-11-19T08:46:09;100876.47;;;14.12;67.25
21290;BME280;10804;48.988;2.408;2023-11-19T08:48:38;100870.31;;;14.13;67.59
21290;BME280;10804;48.988;2.408;2023-11-19T08:51:06;100880.84;;;14.11;67.57
21290;BME280;10804;48.988;2.408;2023-11-19T08:53:33;100893.00;;;14.14;67.61
21290;BME280;10804;48.988;2.408;2023-11-19T08:56:01;100894.72;;;14.15;67.42
21290;BME280;10804;48.988;2.408;2023-11-19T08:58:29;100900.81;;;14.15;67.81
21290;BME280;10804;48.988;2.408;2023-11-19T09:00:56;100910.41;;;14.16;67.40
21290;BME280;10804;48.988;2.408;2023-11-19T09:03:24;100908.59;;;14.18;67.52
21290;BME280;10804;48.988;2.408;2023-11-19T09:05:53;100911.22;;;14.18;67.62
21290;BME280;10804;48.988;2.408;2023-11-19T09:08:21;100912.88;;;14.21;67.90
21290;BME280;10804;48.988;2.408;2023-11-19T09:10:48;100908.50;;;14.21;67.67
21290;BME280;10804;48.988;2.408;2023-11-19T09:13:14;100911.97;;;14.22;67.55
21290;BME280;10804;48.988;2.408;2023-11-19T09:15:42;100906.63;;;14.25;67.81
21290;BME280;10804;48.988;2.408;2023-11-19T09:18:09;100896.03;;;14.26;67.52
21290;BME280;10804;48.988;2.408;2023-11-19T09:20:36;100895.13;;;14.27;67.53
21290;BME280;10804;48.988;2.408;2023-11-19T09:23:06;100900.38;;;14.27;67.57
21290;BME280;10804;48.988;2.408;2023-11-19T09:25:34;100906.44;;;14.29;67.79
21290;BME280;10804;48.988;2.408;2023-11-19T09:28:02;100902.03;;;14.30;67.72
21290;BME280;10804;48.988;2.408;2023-11-19T09:30:30;100910.78;;;14.30;67.66
21290;BME280;10804;48.988;2.408;2023-11-19T09:33:02;100903.69;;;14.32;67.78
21290;BME280;10804;48.988;2.408;2023-11-19T09:35:29;100897.53;;;14.33;67.51
21290;BME280;10804;48.988;2.408;2023-11-19T09:37:58;100899.22;;;14.34;67.56
21290;BME280;10804;48.988;2.408;2023-11-19T09:40:27;100888.81;;;14.33;67.82
21290;BME280;10804;48.988;2.408;2023-11-19T09:42:57;100894.81;;;14.36;67.66
21290;BME280;10804;48.988;2.408;2023-11-19T09:45:27;100896.47;;;14.39;67.61
21290;BME280;10804;48.988;2.408;2023-11-19T09:47:55;100892.84;;;14.41;67.49
21290;BME280;10804;48.988;2.408;2023-11-19T09:50:24;100889.31;;;14.42;67.63
21290;BME280;10804;48.988;2.408;2023-11-19T09:52:51;100892.75;;;14.44;67.51
21290;BME280;10804;48.988;2.408;2023-11-19T09:55:19;100892.59;;;14.47;67.57
21290;BME280;10804;48.988;2.408;2023-11-19T09:57:49;100893.41;;;14.49;67.44
21290;BME280;10804;48.988;2.408;2023-11-19T10:00:19;100893.31;;;14.52;67.66
21290;BME280;10804;48.988;2.408;2023-11-19T10:02:48;100887.97;;;14.54;67.60
21290;BME280;10804;48.988;2.408;2023-11-19T10:05:17;100892.25;;;14.56;67.60
21290;BME280;10804;48.988;2.408;2023-11-19T10:07:46;100893.84;;;14.60;67.39
21290;BME280;10804;48.988;2.408;2023-11-19T10:10:13;100893.72;;;14.63;67.21
21290;BME280;10804;48.988;2.408;2023-11-19T10:12:44;100888.41;;;14.65;67.28
21290;BME280;10804;48.988;2.408;2023-11-19T10:15:20;100884.81;;;14.67;67.31
21290;BME280;10804;48.988;2.408;2023-11-19T10:17:48;100891.72;;;14.70;67.29
21290;BME280;10804;48.988;2.408;2023-11-19T10:20:15;100889.88;;;14.72;67.16
21290;BME280;10804;48.988;2.408;2023-11-19T10:22:43;100888.91;;;14.74;67.23
21290;BME280;10804;48.988;2.408;2023-11-19T10:25:22;100890.53;;;14.77;67.23
21290;BME280;10804;48.988;2.408;2023-11-19T10:27:50;100906.19;;;14.80;67.25
21290;BME280;10804;48.988;2.408;2023-11-19T10:30:20;100898.16;;;14.83;67.19
21290;BME280;10804;48.988;2.408;2023-11-19T10:33:02;100897.19;;;14.85;67.13
21290;BME280;10804;48.988;2.408;2023-11-19T10:35:30;100896.19;;;14.89;67.23
21290;BME280;10804;48.988;2.408;2023-11-19T10:37:59;100885.53;;;14.92;67.04
21290;BME280;10804;48.988;2.408;2023-11-19T10:40:37;100893.22;;;14.97;67.18
21290;BME280;10804;48.988;2.408;2023-11-19T10:43:06;100893.09;;;15.00;67.22
21290;BME280;10804;48.988;2.408;2023-11-19T10:45:36;100889.44;;;15.04;67.18
21290;BME280;10804;48.988;2.408;2023-11-19T10:48:05;100889.28;;;15.07;67.07
21290;BME280;10804;48.988;2.408;2023-11-19T10:50:33;100892.59;;;15.12;67.12
21290;BME280;10804;48.988;2.408;2023-11-19T10:53:01;100892.41;;;15.16;66.98
21290;BME280;10804;48.988;2.408;2023-11-19T10:55:30;100886.13;;;15.20;67.08
21290;BME280;10804;48.988;2.408;2023-11-19T10:57:59;100885.06;;;15.24;66.99
21290;BME280;10804;48.988;2.408;2023-11-19T11:00:29;100892.81;;;15.27;67.10
21290;BME280;10804;48.988;2.408;2023-11-19T11:03:02;100874.25;;;15.32;67.09
21290;BME280;10804;48.988;2.408;2023-11-19T11:05:33;100881.94;;;15.36;66.98
21290;BME280;10804;48.988;2.408;2023-11-19T11:08:01;100881.81;;;15.39;66.90
21290;BME280;10804;48.988;2.408;2023-11-19T11:10:32;100881.56;;;15.45;66.95
21290;BME280;10804;48.988;2.408;2023-11-19T11:13:03;100871.75;;;15.49;66.89
21290;BME280;10804;48.988;2.408;2023-11-19T11:15:31;100862.81;;;15.53;66.88
21290;BME280;10804;48.988;2.408;2023-11-19T11:18:02;100866.97;;;15.58;66.66
21290;BME280;10804;48.988;2.408;2023-11-19T11:20:30;100872.84;;;15.63;66.69
21290;BME280;10804;48.988;2.408;2023-11-19T11:23:14;100860.44;;;15.67;66.73
21290;BME280;10804;48.988;2.408;2023-11-19T11:25:54;100852.22;;;15.74;66.57
21290;BME280;10804;48.988;2.408;2023-11-19T11:28:30;100860.72;;;15.79;66.67
21290;BME280;10804;48.988;2.408;2023-11-19T11:31:09;100871.75;;;15.87;66.51
21290;BME280;10804;48.988;2.408;2023-11-19T11:33:59;100877.63;;;15.93;66.31
21290;BME280;10804;48.988;2.408;2023-11-19T11:36:31;100853.84;;;15.95;66.27
21290;BME280;10804;48.988;2.408;2023-11-19T11:39:02;100864.91;;;16.03;66.32
21290;BME280;10804;48.988;2.408;2023-11-19T11:41:33;100860.22;;;16.09;66.15
21290;BME280;10804;48.988;2.408;2023-11-19T11:44:01;100866.19;;;16.13;66.18
21290;BME280;10804;48.988;2.408;2023-11-19T11:46:56;100863.28;;;16.19;66.08
21290;BME280;10804;48.988;2.408;2023-11-19T11:49:28;100865.81;;;16.20;66.05
21290;BME280;10804;48.988;2.408;2023-11-19T11:52:02;100857.81;;;16.23;65.99
21290;BME280;10804;48.988;2.408;2023-11-19T11:54:34;100869.03;;;16.27;65.79
21290;BME280;10804;48.988;2.408;2023-11-19T11:57:07;100856.72;;;16.27;66.08
21290;BME280;10804;48.988;2.408;2023-11-19T11:59:48;100849.53;;;16.31;65.78
21290;BME280;10804;48.988;2.408;2023-11-19T12:02:18;100859.13;;;16.32;65.70
21290;BME280;10804;48.988;2.408;2023-11-19T12:04:49;100864.34;;;16.33;65.61
21290;BME280;10804;48.988;2.408;2023-11-19T12:07:18;100855.50;;;16.34;65.58
21290;BME280;10804;48.988;2.408;2023-11-19T12:09:52;100859.81;;;16.37;65.73
21290;BME280;10804;48.988;2.408;2023-11-19T12:12:22;100860.59;;;16.39;65.62
21290;BME280;10804;48.988;2.408;2023-11-19T12:15:00;100853.50;;;16.41;65.56
21290;BME280;10804;48.988;2.408;2023-11-19T12:17:44;100858.66;;;16.42;65.53
21290;BME280;10804;48.988;2.408;2023-11-19T12:20:17;100852.47;;;16.43;65.40
21290;BME280;10804;48.988;2.408;2023-11-19T12:22:45;100851.53;;;16.44;65.35
21290;BME280;10804;48.988;2.408;2023-11-19T12:25:15;100853.19;;;16.47;65.36
21290;BME280;10804;48.988;2.408;2023-11-19T12:27:44;100848.63;;;16.50;65.37
21290;BME280;10804;48.988;2.408;2023-11-19T12:30:12;100850.25;;;16.53;65.26
21290;BME280;10804;48.988;2.408;2023-11-19T12:32:40;100845.84;;;16.53;65.31
21290;BME280;10804;48.988;2.408;2023-11-19T12:35:09;100835.22;;;16.55;65.07
21290;BME280;10804;48.988;2.408;2023-11-19T12:37:44;100844.69;;;16.59;65.26
21290;BME280;10804;48.988;2.408;2023-11-19T12:40:15;100842.84;;;16.61;65.09
21290;BME280;10804;48.988;2.408;2023-11-19T12:45:11;100841.56;;;16.69;64.96
21290;BME280;10804;48.988;2.408;2023-11-19T12:47:40;100831.72;;;16.73;64.98
21290;BME280;10804;48.988;2.408;2023-11-19T12:50:08;100833.13;;;16.80;64.94
21290;BME280;10804;48.988;2.408;2023-11-19T12:52:36;100838.28;;;16.81;64.69
21290;BME280;10804;48.988;2.408;2023-11-19T12:55:24;100834.44;;;16.88;64.78
21290;BME280;10804;48.988;2.408;2023-11-19T12:57:51;100828.09;;;16.92;64.49
21290;BME280;10804;48.988;2.408;2023-11-19T13:00:21;100833.19;;;16.95;64.67
21290;BME280;10804;48.988;2.408;2023-11-19T13:02:50;100831.97;;;17.02;64.62